Terminal Aerodrome Forecast
Issued by NWS Wilmington, OH

Current Version | Previous Version | Graphics & Text | Print | Product List | Glossary Off
Versions: 1 2 3 4 5 6 7 8 9 10 11 12 13

945
FTUS41 KILN 231136
TAFILN
TAF
KILN 231136Z 2312/2412 08008KT P6SM BKN150
     FM231600 12012G20KT P6SM -SHRA OVC050
     FM232000 12012G20KT 5SM -SHRA OVC025
     FM240100 11012KT P6SM VCSH OVC025=

USA.gov is the U.S. government's official web portal to all federal, state and local government web resources and services.